Terminal Aerodrome Forecast
Issued by NWS Mt. Holly, NJ

Home | Current Version | Previous Version | Text Only | Print | Product List | Glossary On
Versions: 1 2 3 4 5 6 7 8 9 10 11 12 13 14 15 16 17 18 19 20
782
FTUS41 KPHI 240540
TAFILG
TAF
KILG 240540Z 2406/2506 15016G28KT P6SM VCSH OVC025
      TEMPO 2406/2409 6SM -SHRA
     FM240900 15017G31KT 5SM SHRA OVC015
     FM241600 18009KT P6SM VCSH BKN030
     FM241900 18009KT P6SM SCT050 BKN250
     FM250000 VRB03KT P6SM SCT250
     FM250400 27004KT 5SM BR SCT250=

USA.gov is the U.S. government's official web portal to all federal, state and local government web resources and services.